Isleta, NM (87022)

4:06 AM MST on February 14, 2016 (GMT -0700)
Bosque Farms | | Change Station
CLOSE
Current Station
Personal Weather Station
Location: Bosque Farms, NM
Elevation: 4856 ft
Nearby Weather Stations

Elev 4856 ft 34.84 °N, 106.70 °W | Updated 22 seconds ago

Partly Cloudy
Partly Cloudy
24.1 °F
Feels Like 24 °F
N
0.0
Wind Variable Wind from NE

Today
High -- | Low -- °F
--% Chance of Precip.
Yesterday
High -- | Low -- °F
Precip. -- in
Pressure 29.98 in
Visibility 10.0 miles
Clouds Few 14000 ft
Mostly Cloudy 22000 ft
Windchill 24 °F
Dew Point 15 °F
Humidity 69%
Rainfall 0.00 in
Snow Depth Not available.
6:54 AM 5:48 PM
Waxing Crescent, 40% visible
METAR KABQ 141052Z 31003KT 10SM FEW140 BKN220 07/M09 A3011 RMK AO2 SLP150 T00671094 $
Pressure 29.98 in
Visibility 10.0 miles
Clouds Few 14000 ft
Mostly Cloudy 22000 ft
Windchill 24 °F
Dew Point 15 °F
Humidity 69%
Rainfall 0.00 in
Snow Depth Not available.
6:54 AM 5:48 PM
Waxing Crescent, 40% visible
METAR KABQ 141052Z 31003KT 10SM FEW140 BKN220 07/M09 A3011 RMK AO2 SLP150 T00671094 $

10-Day Weather Forecast

Almanac

Astronomy

Feb. 14, 2016 Rise Set
Actual Time
Civil Twilight
Nautical Twilight
Astronomical Twilight
Moon
Length of Visible Light
Length of Day
Tomorrow will be .
, % of the Moon is Illuminated

Today's Extremes

State Highs State Lows

Community

WunderPhotos

Upload Photos

1,892,765 photos uploaded!

WunderBlog® & News

Nearby

Air Quality

  Air Quality AQ Index Pollutant
Not available.

Snow Depth

Station Depth Elevation

Earthquake Activity

City Distance Mag. Time & Date
Minimum magnitude displayed is 2.5.

Coastal Water Temperatures

Place Temperature

Stations

Nearby Weather Stations

Station Location Temp. Windchill Dew Point Humidity Wind Precip. Elev Updated Type
                   

Watches & Warnings

There are currently no watches in effect.